Flight Track Log - Related Links

Times and Time Zones

All times are in EDT time to prevent confusion due to time zone crossing. See the GLA74V flight status page for this flight to view local times or setup timezone preferences in your user account.


Time Position Orientation Groundspeed Altitude Reporting Facility
EDT Latitude Longitude Course Direction KTS MPH feet Rate Location/Type
Tue 10:44:15 AM 39.8480 -104.6657 279° West  Level FlightAware Approximate
Tue 10:45:27 AM 39.8667 -104.8167 288° West 180 207 8,900  Level Denver TRACON
Tue 10:46:27 AM 39.8833 -104.8833 270° West 199 229 10,200 1,053 Climbing Denver TRACON
Tue 10:47:21 AM 39.8833 -104.9500 285° West 206 237 10,900 1,000 Climbing Denver TRACON
Tue 10:48:27 AM 39.9000 -105.0333 285° West 208 239 12,200 1,286 Climbing Denver TRACON
Tue 10:49:27 AM 39.9167 -105.1167 294° West 203 234 13,600 1,561 Climbing Denver TRACON
Tue 10:50:30 AM 39.9389 -105.1814 293° West 195 224 15,400 1,366 Climbing Denver Center
Tue 10:51:30 AM 39.9603 -105.2461 288° West 195 224 16,400 1,200 Climbing Denver Center
Tue 10:52:30 AM 39.9756 -105.3081 289° West 206 237 17,800 1,300 Climbing Denver Center
Tue 10:53:30 AM 39.9931 -105.3728 292° West 206 237 19,000 1,200 Climbing Denver Center
Tue 10:54:30 AM 40.0122 -105.4350 283° West 201 231 20,200 950 Climbing Denver Center
Tue 10:55:30 AM 40.0233 -105.4997 275° West 186 214 20,900 800 Climbing Denver Center
Tue 10:56:30 AM 40.0281 -105.5731 275° West 191 220 21,800 500 Climbing Denver Center
Tue 10:57:30 AM 40.0328 -105.6489 262° West 206 237 21,900 50 Climbing Denver Center
Tue 10:58:30 AM 40.0250 -105.7222 262° West 206 237 21,900 50 Level Denver Center
Tue 10:59:30 AM 40.0169 -105.7956 268° West 212 244 22,000  Climbing Denver Center
Tue 11:00:30 AM 40.0153 -105.8633 268° West 217 250 21,900 -50 Descending Denver Center
Tue 11:01:30 AM 40.0136 -105.9447 266° West 217 250 21,900  Level Denver Center
Tue 11:02:30 AM 40.0097 -106.0233 270° West 217 250 21,900  Level Denver Center
Tue 11:03:30 AM 40.0100 -106.1047 265° West 217 250 21,900 50 Level Denver Center
Tue 11:04:30 AM 40.0042 -106.1858 268° West 217 250 22,000  Climbing Denver Center
Tue 11:05:30 AM 40.0022 -106.2644 270° West 222 255 21,900  Descending Denver Center
Tue 11:06:30 AM 40.0022 -106.3486 270° West 222 255 22,000 -50 Climbing Denver Center
Tue 11:07:30 AM 40.0022 -106.4408 274° West 233 268 21,800 -50 Descending Denver Center
Tue 11:08:30 AM 40.0064 -106.5219 274° West 240 276 21,900 50 Climbing Denver Center
Tue 11:09:30 AM 40.0106 -106.6033 273° West 240 276 21,900 50 Level Denver Center
Tue 11:10:30 AM 40.0144 -106.7011 277° West 240 276 22,000  Climbing Denver Center
Tue 11:11:30 AM 40.0228 -106.7878 274° West 240 276 21,900 -50 Descending Denver Center
Tue 11:12:30 AM 40.0267 -106.8639 273° West 234 269 21,900 50 Level Denver Center
Tue 11:13:30 AM 40.0306 -106.9506 276° West 234 269 22,000 50 Climbing Denver Center
Tue 11:14:30 AM 40.0383 -107.0428 273° West 234 269 22,000  Level Denver Center
Tue 11:15:30 AM 40.0422 -107.1297 274° West 234 269 22,000 -50 Level Denver Center
Tue 11:16:30 AM 40.0458 -107.2056 275° West 234 269 21,900  Descending Denver Center
Tue 11:17:30 AM 40.0514 -107.2897 273° West 234 269 22,000  Climbing Denver Center
Tue 11:18:30 AM 40.0550 -107.3847 275° West 234 269 21,900  Descending Denver Center
Tue 11:19:30 AM 40.0606 -107.4717 275° West 234 269 22,000  Climbing Denver Center
Tue 11:20:30 AM 40.0661 -107.5506 274° West 234 269 21,900 -50 Descending Denver Center
Tue 11:21:30 AM 40.0714 -107.6456 275° West 234 269 21,900  Level Denver Center
Tue 11:22:30 AM 40.0767 -107.7269 276° West 234 269 21,900 100 Level Denver Center
Tue 11:23:30 AM 40.0839 -107.8167 283° West 239 275 22,100  Climbing Denver Center
Tue 11:24:30 AM 40.0978 -107.8931 282° West 239 275 21,900 -50 Descending Denver Center
Tue 11:25:30 AM 40.1131 -107.9856 282° West 239 275 22,000 100 Climbing Denver Center
Tue 11:26:30 AM 40.1267 -108.0703 284° West 234 269 22,100  Climbing Denver Center
Tue 11:27:30 AM 40.1422 -108.1494 282° West 234 269 22,000 -100 Descending Denver Center
Tue 11:28:30 AM 40.1536 -108.2203 281° West 234 269 21,900 -150 Descending Denver Center
Tue 11:29:30 AM 40.1669 -108.3103 282° West 229 264 21,700 -600 Descending Denver Center
Tue 11:30:30 AM 40.1800 -108.3894 285° West 229 264 20,700 -1,150 Descending Denver Center
Tue 11:31:30 AM 40.1956 -108.4633 284° West 229 264 19,400 -1,300 Descending Denver Center
Tue 11:32:30 AM 40.2108 -108.5425 285° West 229 264 18,100 -1,700 Descending Denver Center
Tue 11:33:30 AM 40.2300 -108.6383 283° West 243 280 16,000 -1,700 Descending Denver Center
Tue 11:34:30 AM 40.2450 -108.7258 284° West 243 280 14,700 -1,651 Descending Denver Center
Tue 11:35:59 AM 40.2681 -108.8506 281° West 253 291 11,900 -1,113 Descending Salt Lake Center
Tue 11:37:01 AM 40.2822 -108.9478 281° West 248 285 11,900  Level Salt Lake Center

Login

Don't have an account? Register now (free) for customized features, flight alerts, and more!